createdAt,value
2018-11-23T00:01:46.757Z,69.87
2018-11-23T00:05:50.433Z,74.80
2018-11-23T00:09:54.132Z,71.27
2018-11-23T00:13:57.842Z,73.80
2018-11-23T00:18:01.570Z,71.20
2018-11-23T00:22:05.365Z,74.90
2018-11-23T00:26:09.084Z,69.97
2018-11-23T00:30:14.590Z,65.73
2018-11-23T00:34:18.277Z,71.70
2018-11-23T00:38:21.992Z,69.53
2018-11-23T00:42:25.674Z,71.30
2018-11-23T00:46:29.605Z,67.73
2018-11-23T00:50:33.284Z,72.37
2018-11-23T00:54:36.970Z,70.80
2018-11-23T00:58:40.665Z,72.73
2018-11-23T01:02:44.889Z,64.87
2018-11-23T01:06:48.605Z,60.87
2018-11-23T01:10:52.296Z,74.00
2018-11-23T01:14:55.985Z,70.47
2018-11-23T01:18:59.672Z,73.20
2018-11-23T01:23:03.404Z,62.93
2018-11-23T01:27:07.100Z,73.77
2018-11-23T01:31:10.831Z,68.80
2018-11-23T01:35:14.674Z,67.37
2018-11-23T01:39:18.340Z,67.53
2018-11-23T01:43:22.015Z,72.03
2018-11-23T01:47:25.717Z,67.17
2018-11-23T01:51:29.357Z,58.93
2018-11-23T01:55:33.043Z,58.20
2018-11-23T01:59:36.747Z,64.93
2018-11-23T02:03:40.453Z,66.57
2018-11-23T02:07:47.341Z,67.77
2018-11-23T02:11:51.092Z,57.80
2018-11-23T02:15:54.818Z,59.17
2018-11-23T02:19:58.176Z,63.63
2018-11-23T02:24:01.882Z,62.27
2018-11-23T02:28:05.754Z,57.93
2018-11-23T02:32:09.478Z,60.40
2018-11-23T02:36:13.225Z,58.57
2018-11-23T02:40:18.053Z,63.10
2018-11-23T02:44:21.773Z,61.60
2018-11-23T02:48:25.489Z,57.93
2018-11-23T02:52:29.199Z,56.07
2018-11-23T02:56:44.028Z,56.77
2018-11-23T03:00:47.741Z,62.67
2018-11-23T03:04:51.444Z,59.77
2018-11-23T03:08:55.198Z,58.23
2018-11-23T03:12:58.901Z,58.67
2018-11-23T03:17:02.617Z,60.57
2018-11-23T03:21:06.417Z,59.50
2018-11-23T03:25:11.117Z,56.27
2018-11-23T03:29:14.822Z,57.07
2018-11-23T03:33:18.539Z,60.07
2018-11-23T03:37:22.220Z,62.83
2018-11-23T03:41:25.953Z,59.53
2018-11-23T03:45:29.761Z,65.60
2018-11-23T03:49:33.458Z,56.03
2018-11-23T03:53:37.189Z,58.13
2018-11-23T03:57:40.898Z,50.10
2018-11-23T04:01:44.640Z,61.30
2018-11-23T04:05:48.362Z,54.80
2018-11-23T04:09:52.091Z,59.50
2018-11-23T04:13:55.821Z,62.10
2018-11-23T04:17:59.477Z,60.43
2018-11-23T04:22:03.356Z,64.97
2018-11-23T04:26:07.121Z,57.60
2018-11-23T04:30:13.842Z,61.70
2018-11-23T04:34:17.573Z,61.97
2018-11-23T04:38:21.262Z,60.80
2018-11-23T04:42:24.993Z,59.73
2018-11-23T04:46:28.717Z,71.23
2018-11-23T04:50:32.377Z,61.63
2018-11-23T04:54:36.237Z,62.70
2018-11-23T04:58:39.932Z,61.17
2018-11-23T05:02:44.333Z,56.17
2018-11-23T05:06:48.117Z,60.80
2018-11-23T05:10:51.773Z,59.57
2018-11-23T05:17:41.058Z,55.17
2018-11-23T05:21:44.757Z,59.73
2018-11-23T05:25:48.420Z,59.93
2018-11-23T05:29:52.325Z,57.87
2018-11-23T05:33:56.009Z,50.67
2018-11-23T05:37:59.708Z,61.90
2018-11-23T05:42:03.476Z,55.33
2018-11-23T05:46:07.121Z,53.60
2018-11-23T05:53:54.485Z,55.20
2018-11-23T05:57:58.185Z,51.80
2018-11-23T06:02:01.897Z,54.70
2018-11-23T06:06:05.742Z,55.10
2018-11-23T06:10:12.417Z,50.40
2018-11-23T06:14:16.090Z,57.43
2018-11-23T06:18:19.788Z,53.80
2018-11-23T06:22:23.481Z,48.57
2018-11-23T06:26:28.308Z,53.77
2018-11-23T06:30:32.007Z,60.33
2018-11-23T06:34:35.758Z,52.23
2018-11-23T06:38:39.593Z,51.87
2018-11-23T06:42:43.338Z,53.47
2018-11-23T06:46:47.002Z,56.37
2018-11-23T06:50:50.757Z,51.43
2018-11-23T06:54:54.444Z,51.23
2018-11-23T06:58:58.130Z,49.20
2018-11-23T07:03:01.890Z,56.90
2018-11-23T07:07:05.838Z,53.03
2018-11-23T07:11:09.590Z,45.63
2018-11-23T07:15:13.570Z,42.93
2018-11-23T07:19:17.262Z,48.63
2018-11-23T07:23:20.992Z,50.10
2018-11-23T07:27:24.645Z,47.37
2018-11-23T07:31:28.430Z,53.23
2018-11-23T07:35:32.158Z,52.50
2018-11-23T07:39:47.013Z,49.07
2018-11-23T07:43:50.719Z,53.23
2018-11-23T07:47:54.386Z,53.03
2018-11-23T07:51:58.122Z,55.30
2018-11-23T07:56:01.807Z,53.93
2018-11-23T08:00:14.521Z,57.63
2018-11-23T08:04:18.243Z,51.17
2018-11-23T08:08:21.905Z,47.03
2018-11-23T08:12:25.593Z,50.07
2018-11-23T08:16:29.298Z,47.27
2018-11-23T08:20:32.976Z,46.67
2018-11-23T08:24:36.648Z,43.90
2018-11-23T08:28:40.321Z,50.40
2018-11-23T08:32:44.220Z,48.00
2018-11-23T08:36:47.921Z,43.90
2018-11-23T08:40:51.606Z,39.90
2018-11-23T08:44:55.363Z,45.27
2018-11-23T08:48:59.034Z,45.77
2018-11-23T08:53:02.730Z,41.47
2018-11-23T08:57:06.506Z,47.57
2018-11-23T09:01:10.316Z,44.77
2018-11-23T09:05:14.269Z,40.47
2018-11-23T09:09:17.983Z,37.47
2018-11-23T09:13:21.662Z,35.80
2018-11-23T09:17:25.367Z,45.50
2018-11-23T09:21:29.077Z,39.70
2018-11-23T09:25:32.774Z,40.23
2018-11-23T09:29:36.473Z,39.47
2018-11-23T09:33:40.217Z,37.97
2018-11-23T09:37:44.399Z,40.10
2018-11-23T09:41:48.238Z,37.77
2018-11-23T09:45:51.971Z,36.90
2018-11-23T09:54:29.931Z,39.58
2018-11-23T09:58:33.647Z,34.53
2018-11-23T10:02:37.328Z,38.77
2018-11-23T10:06:41.085Z,34.77
2018-11-23T10:10:44.824Z,34.00
2018-11-23T10:14:48.505Z,33.70
2018-11-23T10:18:52.201Z,32.40
2018-11-23T10:22:55.969Z,31.57
2018-11-23T10:26:59.677Z,31.23
2018-11-23T10:31:03.382Z,30.07
2018-11-23T10:35:08.025Z,28.23
2018-11-23T10:39:11.729Z,28.90
2018-11-23T10:43:15.449Z,33.38
2018-11-23T10:47:19.123Z,33.58
2018-11-23T10:51:22.841Z,32.95
2018-11-23T10:55:28.294Z,31.70
2018-11-23T10:59:32.061Z,34.47
2018-11-23T11:03:36.666Z,35.38
2018-11-23T11:07:40.441Z,31.05
2018-11-23T11:11:44.207Z,32.13
2018-11-23T11:15:47.898Z,32.67
2018-11-23T11:19:51.609Z,29.60
2018-11-23T11:23:55.317Z,29.70
2018-11-23T11:27:58.997Z,28.95
2018-11-23T11:32:02.669Z,34.73
2018-11-23T11:36:06.372Z,31.57
2018-11-23T11:40:12.228Z,34.97
2018-11-23T11:44:15.949Z,32.17
2018-11-23T11:48:19.690Z,32.77
2018-11-23T11:52:23.388Z,34.13
2018-11-23T11:56:27.039Z,31.77
2018-11-23T12:00:30.806Z,40.63
2018-11-23T12:04:34.586Z,33.03
2018-11-23T12:08:38.282Z,37.20
2018-11-23T12:12:42.065Z,33.43
2018-11-23T12:16:45.743Z,36.43
2018-11-23T12:20:49.484Z,29.63
2018-11-23T12:24:53.453Z,30.47
2018-11-23T12:28:57.143Z,38.07
2018-11-23T12:33:00.844Z,31.53
2018-11-23T12:37:04.553Z,31.43
2018-11-23T12:41:08.274Z,31.40
2018-11-23T12:45:13.675Z,31.03
2018-11-23T12:49:17.384Z,32.80
2018-11-23T12:53:21.229Z,31.27
2018-11-23T12:57:24.934Z,31.80
2018-11-23T13:01:28.626Z,35.87
2018-11-23T13:05:33.992Z,34.60
2018-11-23T13:09:37.809Z,37.10
2018-11-23T13:13:41.592Z,36.53
2018-11-23T13:17:45.283Z,34.00
2018-11-23T13:21:49.092Z,41.03
2018-11-23T13:25:52.821Z,31.30
2018-11-23T13:29:56.697Z,36.40
2018-11-23T13:34:00.394Z,35.10
2018-11-23T13:38:04.112Z,35.23
2018-11-23T13:42:07.837Z,34.40
2018-11-23T13:46:11.503Z,30.70
2018-11-23T13:50:16.632Z,30.53
2018-11-23T13:54:20.336Z,31.83
2018-11-23T13:58:24.175Z,36.93
2018-11-23T14:02:29.027Z,33.87
2018-11-23T14:06:32.728Z,35.63
2018-11-23T14:10:36.501Z,28.70
2018-11-23T14:14:40.221Z,34.80
2018-11-23T14:18:43.944Z,29.83
2018-11-23T14:22:47.706Z,32.53
2018-11-23T14:26:51.416Z,28.77
2018-11-23T14:30:55.096Z,30.90
2018-11-23T14:34:58.820Z,34.63
2018-11-23T14:39:02.530Z,33.53
2018-11-23T14:43:06.238Z,33.07
2018-11-23T14:47:09.924Z,30.50
2018-11-23T14:51:13.686Z,35.33
2018-11-23T14:55:17.818Z,36.10
2018-11-23T14:59:21.589Z,34.70
2018-11-23T15:03:25.371Z,33.23
2018-11-23T15:07:29.123Z,32.27
2018-11-23T15:11:32.861Z,32.93
2018-11-23T15:15:38.985Z,35.23
2018-11-23T15:19:42.740Z,31.57
2018-11-23T15:23:46.484Z,32.60
2018-11-23T15:27:50.194Z,29.97
2018-11-23T15:31:53.941Z,33.60
2018-11-23T15:35:57.667Z,31.05
2018-11-23T15:40:01.398Z,34.60
2018-11-23T15:44:05.808Z,33.40
2018-11-23T15:48:10.336Z,30.27
2018-11-23T15:52:14.105Z,29.42
2018-11-23T15:56:17.948Z,32.23
2018-11-23T16:00:25.480Z,33.13
2018-11-23T16:04:29.200Z,36.13
2018-11-23T16:08:33.093Z,34.30
2018-11-23T16:12:36.812Z,33.73
2018-11-23T16:16:40.513Z,32.98
2018-11-23T16:20:45.645Z,37.67
2018-11-23T16:24:49.350Z,37.38
2018-11-23T16:28:53.087Z,39.05
2018-11-23T16:32:58.006Z,32.70
2018-11-23T16:37:01.721Z,35.70
2018-11-23T16:41:05.809Z,35.28
2018-11-23T16:45:13.666Z,37.98
2018-11-23T16:49:17.457Z,40.80
2018-11-23T16:53:21.329Z,36.33
2018-11-23T16:57:25.038Z,37.45
2018-11-23T17:01:28.716Z,36.53
2018-11-23T17:05:34.160Z,40.60
2018-11-23T17:09:37.933Z,35.93
2018-11-23T17:13:41.693Z,36.90
2018-11-23T17:17:45.862Z,40.70
2018-11-23T17:21:49.525Z,41.02
2018-11-23T17:25:53.313Z,37.35
2018-11-23T17:29:57.012Z,40.30
2018-11-23T17:34:00.775Z,40.12
2018-11-23T17:38:04.577Z,41.35
2018-11-23T17:42:08.289Z,43.87
2018-11-23T17:46:12.105Z,44.58
2018-11-23T17:50:18.326Z,41.53
2018-11-23T17:54:22.108Z,42.00
2018-11-23T17:58:25.834Z,38.42
2018-11-23T18:02:30.706Z,49.77
2018-11-23T18:06:34.401Z,42.80
2018-11-23T18:10:38.154Z,40.67
2018-11-23T18:14:41.918Z,36.65
2018-11-23T18:18:45.634Z,40.12
2018-11-23T18:22:50.025Z,41.45
2018-11-23T18:26:53.723Z,38.77
2018-11-23T18:30:57.434Z,41.15
2018-11-23T18:35:01.161Z,42.75
2018-11-23T18:39:06.951Z,39.98
2018-11-23T18:43:10.675Z,43.35
2018-11-23T18:47:14.424Z,42.83
2018-11-23T18:51:18.124Z,44.70
2018-11-23T18:55:21.849Z,44.58
2018-11-23T18:59:25.549Z,40.78
2018-11-23T19:03:29.266Z,37.93
2018-11-23T19:07:33.067Z,39.43
2018-11-23T19:11:41.975Z,42.65
2018-11-23T19:15:45.713Z,37.73
2018-11-23T19:19:49.426Z,42.03
2018-11-23T19:23:53.144Z,43.58
2018-11-23T19:27:56.845Z,44.80
2018-11-23T19:32:00.558Z,38.53
2018-11-23T19:36:04.350Z,37.60
2018-11-23T19:40:10.618Z,39.80
2018-11-23T19:44:14.333Z,41.53
2018-11-23T19:48:18.072Z,40.73
2018-11-23T19:52:21.837Z,39.00
2018-11-23T19:56:25.549Z,40.15
2018-11-23T20:00:29.293Z,42.65
2018-11-23T20:04:32.985Z,39.67
2018-11-23T20:08:36.668Z,42.53
2018-11-23T20:12:40.421Z,46.83
2018-11-23T20:16:44.155Z,43.10
2018-11-23T20:20:47.889Z,46.00
2018-11-23T20:24:51.590Z,43.85
2018-11-23T20:28:55.252Z,40.20
2018-11-23T20:32:58.980Z,43.70
2018-11-23T20:37:02.725Z,45.38
2018-11-23T20:41:06.451Z,49.25
2018-11-23T20:45:11.263Z,49.27
2018-11-23T20:49:14.937Z,47.00
2018-11-23T20:53:18.645Z,45.17
2018-11-23T20:57:22.398Z,48.40
2018-11-23T21:01:26.086Z,49.27
2018-11-23T21:05:29.793Z,51.28
2018-11-23T21:09:33.499Z,68.42
2018-11-23T21:13:37.239Z,77.73
2018-11-23T21:17:40.915Z,88.13
2018-11-23T21:21:44.637Z,100.90
2018-11-23T21:25:48.385Z,132.97
2018-11-23T21:29:52.073Z,188.87
2018-11-23T21:33:55.822Z,123.97
2018-11-23T21:37:59.540Z,166.57
2018-11-23T21:42:03.253Z,159.20
2018-11-23T21:46:07.026Z,172.50
2018-11-23T21:50:24.849Z,191.43
2018-11-23T21:54:22.190Z,228.40
2018-11-23T21:58:25.899Z,171.27
2018-11-23T22:02:29.720Z,162.23
2018-11-23T22:06:33.448Z,166.57
2018-11-23T22:10:37.236Z,138.90
2018-11-23T22:14:41.008Z,149.80
2018-11-23T22:18:44.748Z,149.30
2018-11-23T22:22:48.446Z,170.53
2018-11-23T22:26:52.137Z,145.43
2018-11-23T22:30:55.882Z,184.18
2018-11-23T22:34:59.559Z,191.15
2018-11-23T22:39:03.453Z,152.00
2018-11-23T22:43:07.424Z,224.90
2018-11-23T22:47:11.144Z,211.90
2018-11-23T22:51:14.847Z,171.98
2018-11-23T22:55:19.205Z,208.72
2018-11-23T22:59:22.933Z,196.72
2018-11-23T23:03:26.750Z,154.35
2018-11-23T23:07:30.504Z,171.32
2018-11-23T23:11:34.301Z,180.90
2018-11-23T23:15:37.983Z,161.90
2018-11-23T23:19:41.662Z,160.97
2018-11-23T23:23:45.393Z,168.32
2018-11-23T23:27:49.104Z,143.93
2018-11-23T23:31:52.842Z,163.95
2018-11-23T23:35:56.496Z,163.18
2018-11-23T23:40:00.222Z,171.82
2018-11-23T23:44:04.022Z,140.95
2018-11-23T23:48:07.738Z,110.78
2018-11-23T23:52:11.465Z,120.82
2018-11-23T23:56:15.145Z,141.90
